createdAt,value
2019-03-21T00:00:44.791Z,98286.79
2019-03-21T00:01:55.722Z,98290.20
2019-03-21T00:03:03.743Z,98282.93
2019-03-21T00:04:14.351Z,98285.47
2019-03-21T00:05:23.849Z,98282.93
2019-03-21T00:06:31.964Z,98287.20
2019-03-21T00:07:39.951Z,98284.63
2019-03-21T00:08:48.331Z,98286.34
2019-03-21T00:10:17.415Z,98284.19
2019-03-21T00:12:14.463Z,98282.05
2019-03-21T00:13:22.559Z,98280.12
2019-03-21T00:15:18.599Z,98283.89
2019-03-21T00:16:26.593Z,98284.74
2019-03-21T00:17:39.269Z,98285.81
2019-03-21T00:18:47.258Z,98292.20
2019-03-21T00:19:55.308Z,98286.97
2019-03-21T00:21:03.302Z,98293.77
2019-03-21T00:22:11.318Z,98288.59
2019-03-21T00:23:20.493Z,98291.55
2019-03-21T00:24:28.500Z,98291.08
2019-03-21T00:25:36.491Z,98285.93
2019-03-21T00:26:44.466Z,98290.57
2019-03-21T00:27:52.457Z,98293.11
2019-03-21T00:29:00.461Z,98291.83
2019-03-21T00:30:14.304Z,98287.52
2019-03-21T00:31:22.475Z,98285.80
2019-03-21T00:32:30.557Z,98287.97
2019-03-21T00:33:38.754Z,98285.80
2019-03-21T00:34:46.763Z,98284.14
2019-03-21T00:35:54.781Z,98284.20
2019-03-21T00:37:02.818Z,98280.82
2019-03-21T00:38:10.837Z,98277.87
2019-03-21T00:39:18.918Z,98280.48
2019-03-21T00:40:33.675Z,98278.82
2019-03-21T00:41:41.695Z,98280.58
2019-03-21T00:42:49.732Z,98280.27
2019-03-21T00:43:57.721Z,98277.26
2019-03-21T00:45:06.465Z,98276.41
2019-03-21T00:46:14.604Z,98274.28
2019-03-21T00:47:22.692Z,98276.84
2019-03-21T00:48:30.659Z,98272.99
2019-03-21T00:49:38.650Z,98269.14
2019-03-21T00:50:46.644Z,98269.14
2019-03-21T00:51:54.754Z,98267.41
2019-03-21T00:53:02.757Z,98269.98
2019-03-21T00:54:10.734Z,98271.70
2019-03-21T00:55:18.724Z,98272.58
2019-03-21T00:56:26.744Z,98268.73
2019-03-21T00:57:34.737Z,98263.59
2019-03-21T00:58:42.788Z,98271.33
2019-03-21T00:59:50.761Z,98270.05
2019-03-21T01:00:59.412Z,98271.77
2019-03-21T01:02:07.402Z,98273.50
2019-03-21T01:03:16.227Z,98269.20
2019-03-21T01:04:28.951Z,98269.23
2019-03-21T01:05:38.056Z,98263.69
2019-03-21T01:06:46.059Z,98269.30
2019-03-21T01:07:54.047Z,98260.80
2019-03-21T01:09:02.053Z,98267.23
2019-03-21T01:10:13.554Z,98265.98
2019-03-21T01:11:21.560Z,98271.12
2019-03-21T01:12:29.566Z,98268.14
2019-03-21T01:13:37.902Z,98266.00
2019-03-21T01:14:45.907Z,98268.58
2019-03-21T01:15:53.883Z,98267.29
2019-03-21T01:17:01.889Z,98269.42
2019-03-21T01:18:09.894Z,98269.42
2019-03-21T01:19:17.885Z,98270.70
2019-03-21T01:20:25.846Z,98271.14
2019-03-21T01:21:33.851Z,98267.73
2019-03-21T01:22:41.857Z,98271.58
2019-03-21T01:23:49.865Z,98274.16
2019-03-21T01:24:57.874Z,98280.61
2019-03-21T01:26:06.130Z,98278.48
2019-03-21T01:27:14.120Z,98278.07
2019-03-21T01:28:22.126Z,98278.10
2019-03-21T01:29:30.162Z,98274.28
2019-03-21T01:30:38.169Z,98276.00
2019-03-21T01:31:46.172Z,98267.01
2019-03-21T01:32:54.193Z,98266.16
2019-03-21T01:34:02.218Z,98270.05
2019-03-21T01:35:10.279Z,98264.13
2019-03-21T01:36:18.994Z,98267.98
2019-03-21T01:37:26.981Z,98267.13
2019-03-21T01:38:34.972Z,98259.83
2019-03-21T01:39:43.008Z,98258.55
2019-03-21T01:40:51.765Z,98255.13
2019-03-21T01:41:59.968Z,98257.70
2019-03-21T01:43:07.909Z,98262.44
2019-03-21T01:44:15.901Z,98257.30
2019-03-21T01:45:25.031Z,98255.60
2019-03-21T01:46:33.037Z,98260.73
2019-03-21T01:47:41.047Z,98256.92
2019-03-21T01:48:49.034Z,98261.64
2019-03-21T01:49:57.039Z,98261.68
2019-03-21T01:51:05.059Z,98259.98
2019-03-21T01:52:13.095Z,98263.02
2019-03-21T01:53:21.117Z,98261.77
2019-03-21T01:54:29.122Z,98267.75
2019-03-21T01:55:37.112Z,98260.98
2019-03-21T01:56:45.133Z,98265.27
2019-03-21T01:57:53.244Z,98263.61
2019-03-21T01:59:01.235Z,98267.91
2019-03-21T02:00:14.312Z,98265.80
2019-03-21T02:01:22.306Z,98268.84
2019-03-21T02:02:30.279Z,98258.63
2019-03-21T02:03:38.270Z,98261.69
2019-03-21T02:04:46.262Z,98260.88
2019-03-21T02:05:54.268Z,98262.63
2019-03-21T02:07:02.291Z,98256.67
2019-03-21T02:08:10.372Z,98260.55
2019-03-21T02:09:18.418Z,98258.89
2019-03-21T02:10:26.394Z,98256.00
2019-03-21T02:11:34.385Z,98261.16
2019-03-21T02:12:42.375Z,98257.40
2019-03-21T02:13:50.366Z,98255.36
2019-03-21T02:14:58.342Z,98249.84
2019-03-21T02:16:07.623Z,98251.62
2019-03-21T02:17:15.539Z,98249.11
2019-03-21T02:18:23.545Z,98248.69
2019-03-21T02:19:32.020Z,98250.06
2019-03-21T02:20:40.006Z,98249.66
2019-03-21T02:21:47.997Z,98251.81
2019-03-21T02:22:55.975Z,98247.55
2019-03-21T02:24:04.133Z,98248.86
2019-03-21T02:25:19.906Z,98253.13
2019-03-21T02:26:27.929Z,98253.13
2019-03-21T02:27:35.917Z,98249.77
2019-03-21T02:28:43.925Z,98252.77
2019-03-21T02:29:51.901Z,98249.79
2019-03-21T02:30:59.890Z,98257.08
2019-03-21T02:32:07.911Z,98248.97
2019-03-21T02:33:26.719Z,98253.69
2019-03-21T02:34:34.803Z,98257.60
2019-03-21T02:35:42.827Z,98252.11
2019-03-21T02:36:51.231Z,98253.42
2019-03-21T02:37:59.235Z,98247.87
2019-03-21T02:39:08.562Z,98247.03
2019-03-21T02:40:19.182Z,98253.86
2019-03-21T02:41:27.155Z,98254.30
2019-03-21T02:42:36.248Z,98247.47
2019-03-21T02:43:44.293Z,98247.05
2019-03-21T02:45:07.279Z,98241.92
2019-03-21T02:46:02.002Z,98246.21
2019-03-21T02:47:10.006Z,98248.80
2019-03-21T02:48:17.994Z,98244.95
2019-03-21T02:49:26.031Z,98245.80
2019-03-21T02:50:34.998Z,98247.52
2019-03-21T02:51:42.987Z,98242.45
2019-03-21T02:52:50.978Z,98242.47
2019-03-21T02:53:58.982Z,98249.32
2019-03-21T02:55:07.529Z,98251.48
2019-03-21T02:56:19.090Z,98251.91
2019-03-21T02:57:27.083Z,98251.94
2019-03-21T02:58:35.072Z,98247.68
2019-03-21T02:59:43.108Z,98247.27
2019-03-21T03:00:51.112Z,98251.96
2019-03-21T03:01:59.077Z,98247.68
2019-03-21T03:03:07.395Z,98246.39
2019-03-21T03:04:15.373Z,98248.09
2019-03-21T03:05:26.031Z,98249.40
2019-03-21T03:06:34.027Z,98250.68
2019-03-21T03:07:42.013Z,98245.14
2019-03-21T03:08:50.041Z,98246.02
2019-03-21T03:09:58.219Z,98252.86
2019-03-21T03:11:10.491Z,98248.60
2019-03-21T03:12:16.466Z,98249.91
2019-03-21T03:13:25.542Z,98254.66
2019-03-21T03:14:33.534Z,98257.69
2019-03-21T03:15:41.616Z,98251.70
2019-03-21T03:16:49.659Z,98250.02
2019-03-21T03:17:57.701Z,98250.02
2019-03-21T03:19:05.752Z,98249.17
2019-03-21T03:20:16.423Z,98249.61
2019-03-21T03:21:24.429Z,98241.06
2019-03-21T03:22:32.404Z,98242.34
2019-03-21T03:23:40.441Z,98241.96
2019-03-21T03:24:49.585Z,98242.80
2019-03-21T03:25:57.865Z,98242.39
2019-03-21T03:27:05.842Z,98238.98
2019-03-21T03:28:20.639Z,98233.01
2019-03-21T03:29:28.658Z,98231.72
2019-03-21T03:30:36.635Z,98227.91
2019-03-21T03:31:44.630Z,98228.75
2019-03-21T03:32:52.695Z,98228.34
2019-03-21T03:34:00.697Z,98229.62
2019-03-21T03:35:10.881Z,98234.31
2019-03-21T03:36:18.931Z,98227.11
2019-03-21T03:37:26.935Z,98224.55
2019-03-21T03:38:34.926Z,98229.27
2019-03-21T03:39:42.917Z,98228.86
2019-03-21T03:40:55.188Z,98225.03
2019-03-21T03:42:03.535Z,98225.47
2019-03-21T03:43:11.556Z,98223.34
2019-03-21T03:44:19.554Z,98220.37
2019-03-21T03:45:37.347Z,98223.80
2019-03-21T03:46:40.868Z,98218.23
2019-03-21T03:47:48.942Z,98219.98
2019-03-21T03:48:56.973Z,98221.28
2019-03-21T03:50:05.366Z,98220.00
2019-03-21T03:51:13.388Z,98218.31
2019-03-21T03:52:21.361Z,98214.90
2019-03-21T03:53:30.447Z,98217.09
2019-03-21T03:54:38.530Z,98215.34
2019-03-21T03:55:46.717Z,98217.52
2019-03-21T03:56:54.689Z,98215.83
2019-03-21T03:58:03.911Z,98223.11
2019-03-21T03:59:11.962Z,98220.13
2019-03-21T04:00:21.813Z,98217.13
2019-03-21T04:01:29.834Z,98228.27
2019-03-21T04:02:37.826Z,98227.83
2019-03-21T04:03:45.832Z,98226.53
2019-03-21T04:04:54.032Z,98224.41
2019-03-21T04:06:02.055Z,98227.84
2019-03-21T04:07:10.054Z,98232.53
2019-03-21T04:08:18.491Z,98229.12
2019-03-21T04:09:26.565Z,98232.12
2019-03-21T04:10:37.480Z,98232.14
2019-03-21T04:11:45.685Z,98232.14
2019-03-21T04:12:53.685Z,98226.22
2019-03-21T04:14:01.664Z,98230.91
2019-03-21T04:15:11.710Z,98233.91
2019-03-21T04:16:19.721Z,98232.19
2019-03-21T04:17:27.707Z,98234.38
2019-03-21T04:18:35.699Z,98229.68
2019-03-21T04:19:43.612Z,98238.22
2019-03-21T04:20:51.952Z,98231.40
2019-03-21T04:22:00.000Z,98237.38
2019-03-21T04:23:08.005Z,98233.11
2019-03-21T04:24:16.015Z,98234.39
2019-03-21T04:25:38.703Z,98229.30
2019-03-21T04:26:47.655Z,98231.42
2019-03-21T04:27:55.645Z,98231.48
2019-03-21T04:29:03.665Z,98230.66
2019-03-21T04:30:13.928Z,98232.36
2019-03-21T04:31:21.915Z,98231.08
2019-03-21T04:32:29.962Z,98238.77
2019-03-21T04:33:37.984Z,98234.05
2019-03-21T04:34:45.991Z,98235.77
2019-03-21T04:35:53.982Z,98234.48
2019-03-21T04:37:01.975Z,98234.48
2019-03-21T04:38:09.962Z,98234.92
2019-03-21T04:39:17.967Z,98242.17
2019-03-21T04:40:25.988Z,98239.20
2019-03-21T04:41:34.026Z,98246.45
2019-03-21T04:42:42.075Z,98244.77
2019-03-21T04:43:50.100Z,98245.20
2019-03-21T04:44:58.163Z,98245.20
2019-03-21T04:46:06.152Z,98244.77
2019-03-21T04:47:14.142Z,98244.77
2019-03-21T04:48:22.210Z,98242.20
2019-03-21T04:49:30.246Z,98241.78
2019-03-21T04:50:38.445Z,98236.25
2019-03-21T04:51:46.451Z,98235.45
2019-03-21T04:52:54.487Z,98235.05
2019-03-21T04:54:02.659Z,98238.45
2019-03-21T04:55:12.047Z,98235.91
2019-03-21T04:56:20.065Z,98236.34
2019-03-21T04:57:28.086Z,98236.78
2019-03-21T04:58:36.107Z,98243.62
2019-03-21T04:59:44.112Z,98235.50
2019-03-21T05:00:52.164Z,98239.78
2019-03-21T05:02:00.185Z,98239.78
2019-03-21T05:03:08.941Z,98239.34
2019-03-21T05:04:16.961Z,98236.80
2019-03-21T05:05:24.982Z,98238.50
2019-03-21T05:06:33.009Z,98243.64
2019-03-21T05:07:40.996Z,98247.05
2019-03-21T05:08:49.060Z,98245.80
2019-03-21T05:09:57.126Z,98244.52
2019-03-21T05:11:05.161Z,98246.66
2019-03-21T05:12:13.166Z,98241.56
2019-03-21T05:13:21.142Z,98242.42
2019-03-21T05:14:29.138Z,98243.73
2019-03-21T05:15:39.586Z,98245.06
2019-03-21T05:16:47.603Z,98247.22
2019-03-21T05:17:57.981Z,98248.52
2019-03-21T05:19:06.018Z,98248.54
2019-03-21T05:20:17.714Z,98248.13
2019-03-21T05:21:25.885Z,98243.02
2019-03-21T05:22:36.740Z,98246.02
2019-03-21T05:23:44.732Z,98247.30
2019-03-21T05:24:52.737Z,98248.60
2019-03-21T05:26:00.715Z,98253.70
2019-03-21T05:27:08.721Z,98250.31
2019-03-21T05:28:16.720Z,98250.75
2019-03-21T05:29:24.762Z,98257.16
2019-03-21T05:30:38.418Z,98252.90
2019-03-21T05:31:46.433Z,98253.74
2019-03-21T05:32:54.426Z,98258.02
2019-03-21T05:34:02.599Z,98264.02
2019-03-21T05:35:10.648Z,98259.30
2019-03-21T05:36:18.640Z,98258.02
2019-03-21T05:37:26.601Z,98263.99
2019-03-21T05:38:34.967Z,98256.73
2019-03-21T05:39:42.943Z,98259.73
2019-03-21T05:40:50.934Z,98259.30
2019-03-21T05:41:59.240Z,98258.08
2019-03-21T05:43:12.496Z,98263.20
2019-03-21T05:44:27.421Z,98267.91
2019-03-21T05:45:35.427Z,98268.78
2019-03-21T05:46:43.434Z,98262.80
2019-03-21T05:47:51.439Z,98261.11
2019-03-21T05:48:59.429Z,98261.11
2019-03-21T05:50:08.784Z,98260.27
2019-03-21T05:51:16.762Z,98262.41
2019-03-21T05:52:24.768Z,98261.13
2019-03-21T05:53:32.774Z,98270.09
2019-03-21T05:54:40.902Z,98268.84
2019-03-21T05:55:48.922Z,98272.67
2019-03-21T05:56:56.913Z,98267.14
2019-03-21T05:58:06.211Z,98266.27
2019-03-21T05:59:14.190Z,98271.41
2019-03-21T06:00:42.804Z,98271.85
2019-03-21T06:01:50.783Z,98274.83
2019-03-21T06:02:58.789Z,98279.98
2019-03-21T06:04:06.792Z,98274.43
2019-03-21T06:05:14.799Z,98272.72
2019-03-21T06:06:52.107Z,98280.38
2019-03-21T06:08:11.783Z,98285.05
2019-03-21T06:09:21.499Z,98278.70
2019-03-21T06:10:29.581Z,98280.85
2019-03-21T06:11:39.637Z,98278.70
2019-03-21T06:12:48.038Z,98279.98
2019-03-21T06:13:56.030Z,98277.84
2019-03-21T06:15:04.516Z,98276.97
2019-03-21T06:16:13.347Z,98280.80
2019-03-21T06:17:21.413Z,98278.22
2019-03-21T06:18:59.576Z,98277.78
2019-03-21T06:20:45.942Z,98280.34
2019-03-21T06:22:50.284Z,98273.17
2019-03-21T06:24:26.328Z,98276.27
2019-03-21T06:26:51.703Z,98282.31
2019-03-21T06:27:59.677Z,98286.59
2019-03-21T06:29:07.698Z,98286.30
2019-03-21T06:30:15.690Z,98288.41
2019-03-21T06:31:23.699Z,98283.25
2019-03-21T06:32:31.749Z,98284.88
2019-03-21T06:33:39.740Z,98290.38
2019-03-21T06:34:47.730Z,98287.36
2019-03-21T06:35:55.817Z,98285.61
2019-03-21T06:37:03.877Z,98289.82
2019-03-21T06:38:11.868Z,98291.50
2019-03-21T06:39:19.918Z,98291.45
2019-03-21T06:40:27.930Z,98294.83
2019-03-21T06:41:35.901Z,98290.53
2019-03-21T06:42:43.907Z,98288.77
2019-03-21T06:43:51.899Z,98289.58
2019-03-21T06:44:59.934Z,98293.37
2019-03-21T06:46:07.911Z,98295.05
2019-03-21T06:47:15.902Z,98295.88
2019-03-21T06:48:23.883Z,98287.70
2019-03-21T06:49:31.887Z,98298.38
2019-03-21T06:50:39.875Z,98295.79
2019-03-21T06:51:47.916Z,98296.20
2019-03-21T06:52:55.870Z,98299.16
2019-03-21T06:54:03.863Z,98294.02
2019-03-21T06:55:11.842Z,98293.13
2019-03-21T06:56:19.815Z,98287.51
2019-03-21T06:57:27.812Z,98290.05
2019-03-21T06:58:35.813Z,98289.20
2019-03-21T06:59:43.819Z,98285.36
2019-03-21T07:00:51.778Z,98290.08
2019-03-21T07:01:59.771Z,98291.84
2019-03-21T07:03:07.776Z,98292.69
2019-03-21T07:04:15.769Z,98288.44
2019-03-21T07:05:23.788Z,98293.97
2019-03-21T07:06:31.766Z,98283.73
2019-03-21T07:07:39.845Z,98288.00
2019-03-21T07:08:47.836Z,98285.00
2019-03-21T07:09:55.827Z,98286.28
2019-03-21T07:11:03.804Z,98284.10
2019-03-21T07:12:11.809Z,98284.53
2019-03-21T07:13:19.815Z,98285.80
2019-03-21T07:14:27.791Z,98277.26
2019-03-21T07:15:35.842Z,98281.52
2019-03-21T07:16:43.864Z,98281.93
2019-03-21T07:17:51.855Z,98281.47
2019-03-21T07:18:59.861Z,98275.06
2019-03-21T07:20:08.695Z,98278.45
2019-03-21T07:21:17.604Z,98285.25
2019-03-21T07:22:25.590Z,98280.54
2019-03-21T07:23:33.611Z,98277.11
2019-03-21T07:24:41.603Z,98281.29
2019-03-21T07:25:49.967Z,98281.68
2019-03-21T07:26:58.250Z,98283.38
2019-03-21T07:28:06.360Z,98279.49
2019-03-21T07:29:14.369Z,98282.41
2019-03-21T07:30:23.224Z,98274.67
2019-03-21T07:31:31.202Z,98270.78
2019-03-21T07:32:39.221Z,98274.58
2019-03-21T07:33:47.198Z,98277.91
2019-03-21T07:34:55.189Z,98276.59
2019-03-21T07:36:03.191Z,98281.25
2019-03-21T07:37:11.232Z,98283.34
2019-03-21T07:38:19.211Z,98283.67
2019-03-21T07:39:28.711Z,98280.62
2019-03-21T07:40:37.004Z,98284.83
2019-03-21T07:41:44.954Z,98284.34
2019-03-21T07:42:52.960Z,98282.52
2019-03-21T07:44:00.950Z,98280.34
2019-03-21T07:45:10.214Z,98282.39
2019-03-21T07:46:18.205Z,98287.83
2019-03-21T07:47:26.182Z,98285.18
2019-03-21T07:48:34.172Z,98279.58
2019-03-21T07:49:42.238Z,98276.91
2019-03-21T07:50:50.259Z,98276.39
2019-03-21T07:51:58.250Z,98282.69
2019-03-21T07:53:06.256Z,98284.33
2019-03-21T07:54:14.231Z,98283.38
2019-03-21T07:55:22.224Z,98285.38
2019-03-21T07:56:30.289Z,98282.73
2019-03-21T07:57:38.265Z,98283.49
2019-03-21T07:58:46.300Z,98281.24
2019-03-21T07:59:54.292Z,98284.13
2019-03-21T08:01:02.478Z,98286.14
2019-03-21T08:02:10.469Z,98286.02
2019-03-21T08:03:18.493Z,98291.89
2019-03-21T08:04:26.482Z,98292.23
2019-03-21T08:05:40.114Z,98290.42
2019-03-21T08:06:44.174Z,98292.02
2019-03-21T08:07:53.605Z,98296.22
2019-03-21T08:09:01.583Z,98290.55
2019-03-21T08:10:11.402Z,98294.68
2019-03-21T08:11:19.487Z,98297.16
2019-03-21T08:12:27.534Z,98294.05
2019-03-21T08:13:36.384Z,98295.64
2019-03-21T08:14:44.386Z,98294.27
2019-03-21T08:15:52.414Z,98298.49
2019-03-21T08:17:00.414Z,98291.52
2019-03-21T08:18:08.421Z,98297.48
2019-03-21T08:19:16.462Z,98293.19
2019-03-21T08:20:25.407Z,98295.72
2019-03-21T08:21:33.473Z,98284.55
2019-03-21T08:22:42.439Z,98284.99
2019-03-21T08:23:50.476Z,98291.80
2019-03-21T08:24:58.438Z,98289.56
2019-03-21T08:26:06.473Z,98291.63
2019-03-21T08:27:14.601Z,98289.80
2019-03-21T08:28:22.637Z,98292.61
2019-03-21T08:29:30.830Z,98289.52
2019-03-21T08:30:59.711Z,98285.93
2019-03-21T08:32:07.732Z,98292.22
2019-03-21T08:33:15.772Z,98291.27
2019-03-21T08:34:23.759Z,98290.72
2019-03-21T08:35:31.843Z,98290.28
2019-03-21T08:36:39.834Z,98286.42
2019-03-21T08:37:47.828Z,98296.27
2019-03-21T08:38:55.861Z,98292.01
2019-03-21T08:40:03.882Z,98292.89
2019-03-21T08:41:11.934Z,98293.84
2019-03-21T08:42:20.032Z,98287.44
2019-03-21T08:43:28.066Z,98293.87
2019-03-21T08:44:36.133Z,98292.55
2019-03-21T08:45:44.175Z,98289.95
2019-03-21T08:46:52.217Z,98287.67
2019-03-21T08:48:00.212Z,98295.25
2019-03-21T08:49:08.246Z,98294.18
2019-03-21T08:50:16.403Z,98293.59
2019-03-21T08:51:24.484Z,98293.44
2019-03-21T08:52:32.486Z,98302.23
2019-03-21T08:53:40.507Z,98296.01
2019-03-21T08:54:48.711Z,98294.49
2019-03-21T08:55:56.714Z,98293.05
2019-03-21T08:57:04.738Z,98292.38
2019-03-21T08:58:12.726Z,98291.77
2019-03-21T08:59:23.733Z,98294.99
2019-03-21T09:00:34.342Z,98295.27
2019-03-21T09:01:41.490Z,98288.67
2019-03-21T09:02:49.494Z,98290.36
2019-03-21T09:03:57.516Z,98290.77
2019-03-21T09:05:06.163Z,98291.56
2019-03-21T09:06:14.174Z,98297.00
2019-03-21T09:07:22.182Z,98296.39
2019-03-21T09:08:30.166Z,98291.59
2019-03-21T09:09:38.188Z,98291.95
2019-03-21T09:10:46.207Z,98295.34
2019-03-21T09:11:54.217Z,98286.31
2019-03-21T09:13:02.255Z,98294.48
2019-03-21T09:14:10.289Z,98294.94
2019-03-21T09:15:18.309Z,98290.66
2019-03-21T09:16:26.346Z,98293.69
2019-03-21T09:17:34.353Z,98298.00
2019-03-21T09:18:42.362Z,98286.80
2019-03-21T09:19:50.354Z,98291.91
2019-03-21T09:20:58.368Z,98290.61
2019-03-21T09:22:06.380Z,98286.25
2019-03-21T09:23:14.381Z,98285.73
2019-03-21T09:24:22.400Z,98290.41
2019-03-21T09:25:30.412Z,98280.80
2019-03-21T09:26:38.475Z,98282.33
2019-03-21T09:27:46.499Z,98278.68
2019-03-21T09:28:54.487Z,98276.25
2019-03-21T09:30:02.494Z,98283.63
2019-03-21T09:31:11.565Z,98279.36
2019-03-21T09:32:20.893Z,98281.21
2019-03-21T09:33:29.878Z,98276.97
2019-03-21T09:34:37.894Z,98279.63
2019-03-21T09:35:45.899Z,98282.23
2019-03-21T09:36:53.950Z,98282.20
2019-03-21T09:38:02.001Z,98287.33
2019-03-21T09:39:10.202Z,98279.58
2019-03-21T09:40:18.705Z,98276.97
2019-03-21T09:41:26.713Z,98279.55
2019-03-21T09:42:34.702Z,98272.68
2019-03-21T09:43:42.724Z,98273.56
2019-03-21T09:44:50.731Z,98273.23
2019-03-21T09:45:58.750Z,98268.64
2019-03-21T09:47:06.788Z,98273.70
2019-03-21T09:48:14.777Z,98271.45
2019-03-21T09:49:23.564Z,98267.08
2019-03-21T09:50:31.990Z,98272.50
2019-03-21T09:51:40.026Z,98268.50
2019-03-21T09:52:48.107Z,98269.63
2019-03-21T09:53:56.158Z,98269.03
2019-03-21T09:55:04.315Z,98258.11
2019-03-21T09:56:12.366Z,98262.33
2019-03-21T09:57:20.375Z,98267.84
2019-03-21T09:58:28.378Z,98262.52
2019-03-21T09:59:36.402Z,98262.79
2019-03-21T10:00:44.406Z,98259.24
2019-03-21T10:01:54.408Z,98260.27
2019-03-21T10:03:02.190Z,98261.78
2019-03-21T10:04:10.239Z,98259.77
2019-03-21T10:05:18.262Z,98253.56
2019-03-21T10:06:26.266Z,98252.57
2019-03-21T10:07:36.723Z,98251.61
2019-03-21T10:08:45.207Z,98254.38
2019-03-21T10:09:53.234Z,98248.95
2019-03-21T10:11:01.232Z,98250.75
2019-03-21T10:12:09.243Z,98250.41
2019-03-21T10:13:18.339Z,98259.48
2019-03-21T10:14:26.361Z,98253.89
2019-03-21T10:15:34.449Z,98250.89
2019-03-21T10:16:42.465Z,98247.81
2019-03-21T10:17:50.489Z,98251.31
2019-03-21T10:18:59.587Z,98251.34
2019-03-21T10:20:08.181Z,98250.14
2019-03-21T10:21:16.213Z,98247.59
2019-03-21T10:22:24.220Z,98248.91
2019-03-21T10:23:32.240Z,98246.37
2019-03-21T10:24:40.246Z,98239.38
2019-03-21T10:25:48.342Z,98233.23
2019-03-21T10:26:56.352Z,98233.77
2019-03-21T10:28:04.450Z,98224.69
2019-03-21T10:29:12.468Z,98232.12
2019-03-21T10:30:37.259Z,98233.03
2019-03-21T10:31:45.287Z,98227.86
2019-03-21T10:32:53.331Z,98230.14
2019-03-21T10:34:01.353Z,98222.33
2019-03-21T10:35:09.691Z,98224.03
2019-03-21T10:36:17.726Z,98230.05
2019-03-21T10:37:25.734Z,98227.96
2019-03-21T10:38:33.767Z,98229.77
2019-03-21T10:39:41.757Z,98228.44
2019-03-21T10:40:49.798Z,98222.36
2019-03-21T10:41:57.816Z,98220.68
2019-03-21T10:43:06.267Z,98220.64
2019-03-21T10:44:14.324Z,98214.56
2019-03-21T10:45:22.317Z,98214.09
2019-03-21T10:46:30.381Z,98217.11
2019-03-21T10:47:38.403Z,98217.63
2019-03-21T10:48:47.508Z,98212.45
2019-03-21T10:49:55.481Z,98213.33
2019-03-21T10:51:03.518Z,98208.17
2019-03-21T10:52:11.541Z,98211.27
2019-03-21T10:53:20.642Z,98214.33
2019-03-21T10:54:28.662Z,98210.06
2019-03-21T10:55:36.724Z,98210.58
2019-03-21T10:56:44.749Z,98211.89
2019-03-21T10:57:52.741Z,98208.03
2019-03-21T10:59:00.744Z,98209.80
2019-03-21T11:00:10.041Z,98202.66
2019-03-21T11:01:18.125Z,98203.67
2019-03-21T11:02:26.160Z,98199.05
2019-03-21T11:03:34.213Z,98198.04
2019-03-21T11:04:43.544Z,98194.59
2019-03-21T11:05:51.560Z,98199.43
2019-03-21T11:07:02.467Z,98197.92
2019-03-21T11:08:10.482Z,98201.53
2019-03-21T11:09:18.507Z,98204.05
2019-03-21T11:10:26.522Z,98199.47
2019-03-21T11:11:34.527Z,98196.57
2019-03-21T11:12:43.632Z,98200.39
2019-03-21T11:13:51.679Z,98192.03
2019-03-21T11:14:59.686Z,98191.40
2019-03-21T11:16:07.707Z,98193.63
2019-03-21T11:17:15.728Z,98189.30
2019-03-21T11:18:23.764Z,98188.46
2019-03-21T11:19:32.161Z,98189.88
2019-03-21T11:20:41.474Z,98194.17
2019-03-21T11:21:49.479Z,98192.02
2019-03-21T11:22:57.515Z,98190.80
2019-03-21T11:24:05.527Z,98187.36
2019-03-21T11:25:13.527Z,98178.80
2019-03-21T11:26:21.534Z,98180.39
2019-03-21T11:27:29.525Z,98180.39
2019-03-21T11:28:37.530Z,98176.02
2019-03-21T11:29:45.611Z,98172.48
2019-03-21T11:30:53.707Z,98180.59
2019-03-21T11:32:01.702Z,98180.01
2019-03-21T11:33:10.110Z,98179.74
2019-03-21T11:34:18.102Z,98172.88
2019-03-21T11:35:26.128Z,98173.19
2019-03-21T11:36:38.487Z,98167.33
2019-03-21T11:37:43.804Z,98168.34
2019-03-21T11:38:51.792Z,98163.30
2019-03-21T11:39:59.797Z,98167.38
2019-03-21T11:41:07.882Z,98167.30
2019-03-21T11:42:15.902Z,98165.78
2019-03-21T11:43:23.913Z,98154.19
2019-03-21T11:44:31.914Z,98150.80
2019-03-21T11:45:40.205Z,98144.45
2019-03-21T11:46:48.224Z,98146.45
2019-03-21T11:47:56.245Z,98151.94
2019-03-21T11:49:04.277Z,98140.98
2019-03-21T11:50:12.486Z,98137.84
2019-03-21T11:51:20.613Z,98142.39
2019-03-21T11:52:28.615Z,98138.31
2019-03-21T11:53:36.650Z,98138.16
2019-03-21T11:54:44.648Z,98129.91
2019-03-21T11:55:52.656Z,98127.34
2019-03-21T11:57:00.671Z,98123.05
2019-03-21T11:58:08.674Z,98121.41
2019-03-21T11:59:16.695Z,98121.20
2019-03-21T12:00:24.708Z,98125.02
2019-03-21T12:01:32.726Z,98127.53
2019-03-21T12:02:40.728Z,98128.06
2019-03-21T12:03:48.735Z,98125.59
2019-03-21T12:04:56.740Z,98119.00
2019-03-21T12:06:04.747Z,98115.95
2019-03-21T12:07:12.768Z,98119.72
2019-03-21T12:08:20.805Z,98113.57
2019-03-21T12:09:28.812Z,98111.34
2019-03-21T12:10:36.832Z,98106.27
2019-03-21T12:11:44.824Z,98109.14
2019-03-21T12:12:52.830Z,98107.58
2019-03-21T12:14:00.869Z,98106.95
2019-03-21T12:15:09.042Z,98111.34
2019-03-21T12:16:17.059Z,98104.33
2019-03-21T12:17:25.184Z,98104.48
2019-03-21T12:18:33.219Z,98104.91
2019-03-21T12:19:41.256Z,98100.89
2019-03-21T12:20:49.279Z,98094.62
2019-03-21T12:21:57.283Z,98099.72
2019-03-21T12:23:05.604Z,98097.00
2019-03-21T12:24:13.596Z,98094.90
2019-03-21T12:25:21.632Z,98090.39
2019-03-21T12:26:29.638Z,98087.23
2019-03-21T12:27:37.659Z,98089.75
2019-03-21T12:28:45.680Z,98096.55
2019-03-21T12:29:53.671Z,98089.09
2019-03-21T12:31:01.708Z,98086.11
2019-03-21T12:32:09.761Z,98089.59
2019-03-21T12:33:17.764Z,98088.78
2019-03-21T12:34:26.851Z,98082.23
2019-03-21T12:35:34.872Z,98084.44
2019-03-21T12:36:43.974Z,98076.92
2019-03-21T12:37:51.967Z,98063.84
2019-03-21T12:40:07.700Z,98073.50
2019-03-21T12:41:15.716Z,98078.88
2019-03-21T12:42:23.766Z,98075.04
2019-03-21T12:43:31.773Z,98071.71
2019-03-21T12:44:39.792Z,98070.28
2019-03-21T12:45:47.813Z,98065.04
2019-03-21T12:46:55.834Z,98078.41
2019-03-21T12:48:03.915Z,98069.80
2019-03-21T12:49:11.940Z,98068.61
2019-03-21T12:50:19.973Z,98074.34
2019-03-21T12:51:27.965Z,98068.72
2019-03-21T12:53:45.705Z,98071.72
2019-03-21T12:54:06.382Z,98069.33
2019-03-21T12:54:53.708Z,98069.21
2019-03-21T12:56:01.731Z,98068.25
2019-03-21T12:57:10.806Z,98065.52
2019-03-21T12:58:18.791Z,98065.52
2019-03-21T12:59:26.830Z,98066.94
2019-03-21T13:00:53.095Z,98065.14
2019-03-21T13:02:01.120Z,98059.07
2019-03-21T13:03:09.432Z,98061.32
2019-03-21T13:04:18.417Z,98059.89
2019-03-21T13:05:30.282Z,98057.75
2019-03-21T13:06:38.301Z,98059.30
2019-03-21T13:07:46.321Z,98058.45
2019-03-21T13:08:54.349Z,98053.22
2019-03-21T13:10:02.341Z,98057.15
2019-03-21T13:11:10.540Z,98046.41
2019-03-21T13:12:18.528Z,98053.19
2019-03-21T13:13:26.599Z,98053.56
2019-03-21T13:14:34.606Z,98053.64
2019-03-21T13:15:42.652Z,98055.34
2019-03-21T13:16:50.680Z,98052.14
2019-03-21T13:18:00.379Z,98051.18
2019-03-21T13:19:08.426Z,98045.37
2019-03-21T13:20:16.448Z,98042.75
2019-03-21T13:21:27.560Z,98041.44
2019-03-21T13:22:35.565Z,98043.58
2019-03-21T13:23:43.578Z,98040.70
2019-03-21T13:24:51.578Z,98038.89
2019-03-21T13:25:59.614Z,98040.93
2019-03-21T13:27:08.250Z,98037.32
2019-03-21T13:28:16.244Z,98030.72
2019-03-21T13:29:25.233Z,98031.16
2019-03-21T13:30:33.394Z,98033.25
2019-03-21T13:31:41.417Z,98032.84